createdAt,value
2023-04-15T00:01:53.687Z,4.17
2023-04-15T00:04:21.468Z,4.70
2023-04-15T00:06:52.590Z,4.00
2023-04-15T00:09:20.634Z,4.03
2023-04-15T00:11:48.199Z,4.27
2023-04-15T00:14:15.898Z,4.47
2023-04-15T00:16:43.476Z,4.17
2023-04-15T00:19:12.300Z,4.57
2023-04-15T00:21:39.821Z,4.10
2023-04-15T00:24:07.448Z,4.33
2023-04-15T00:26:34.991Z,3.97
2023-04-15T00:29:02.632Z,4.57
2023-04-15T00:31:30.761Z,3.67
2023-04-15T00:33:58.343Z,4.23
2023-04-15T00:36:25.853Z,4.53
2023-04-15T00:38:53.568Z,4.80
2023-04-15T00:41:21.266Z,4.27
2023-04-15T00:43:48.830Z,6.13
2023-04-15T00:46:16.824Z,4.90
2023-04-15T00:48:44.410Z,4.93
2023-04-15T00:51:11.939Z,4.93
2023-04-15T00:53:39.516Z,5.43
2023-04-15T00:56:07.286Z,5.33
2023-04-15T00:58:35.207Z,5.03
2023-04-15T01:01:02.749Z,5.13
2023-04-15T01:03:30.602Z,5.13
2023-04-15T01:05:58.225Z,5.20
2023-04-15T01:08:29.136Z,5.80
2023-04-15T01:11:00.772Z,5.50
2023-04-15T01:13:28.434Z,5.00
2023-04-15T01:15:57.050Z,5.40
2023-04-15T01:18:24.901Z,5.00
2023-04-15T01:20:55.089Z,4.90
2023-04-15T01:23:22.717Z,5.17
2023-04-15T01:25:50.733Z,5.83
2023-04-15T01:28:18.258Z,6.20
2023-04-15T01:30:45.774Z,5.57
2023-04-15T01:33:13.310Z,5.67
2023-04-15T01:35:41.445Z,5.93
2023-04-15T01:38:10.092Z,5.40
2023-04-15T01:40:37.715Z,5.60
2023-04-15T01:43:05.574Z,5.60
2023-04-15T01:45:33.105Z,5.90
2023-04-15T01:48:00.764Z,5.63
2023-04-15T01:50:28.449Z,5.20
2023-04-15T01:52:56.012Z,6.03
2023-04-15T01:55:23.549Z,6.23
2023-04-15T01:57:51.156Z,5.40
2023-04-15T02:00:18.790Z,5.77
2023-04-15T02:02:46.404Z,6.17
2023-04-15T02:05:14.047Z,5.60
2023-04-15T02:07:41.628Z,6.40
2023-04-15T02:10:09.290Z,5.70
2023-04-15T02:12:37.071Z,6.70
2023-04-15T02:15:04.856Z,7.03
2023-04-15T02:17:35.015Z,6.53
2023-04-15T02:20:02.965Z,6.30
2023-04-15T02:22:30.477Z,6.27
2023-04-15T02:24:58.275Z,6.80
2023-04-15T02:27:25.891Z,6.57
2023-04-15T02:29:53.601Z,6.80
2023-04-15T02:32:24.648Z,7.10
2023-04-15T02:34:52.256Z,7.03
2023-04-15T02:37:19.745Z,5.83
2023-04-15T02:39:47.647Z,6.90
2023-04-15T02:42:15.188Z,5.77
2023-04-15T02:44:42.708Z,7.00
2023-04-15T02:47:10.194Z,6.87
2023-04-15T02:49:37.752Z,6.00
2023-04-15T02:52:05.376Z,6.60
2023-04-15T02:54:32.987Z,6.73
2023-04-15T02:57:00.576Z,5.97
2023-04-15T02:59:28.324Z,6.50
2023-04-15T03:01:55.990Z,6.43
2023-04-15T03:04:23.618Z,6.53
2023-04-15T03:06:51.107Z,7.23
2023-04-15T03:09:18.701Z,7.23
2023-04-15T03:11:46.180Z,6.77
2023-04-15T03:14:13.745Z,6.87
2023-04-15T03:16:41.230Z,6.83
2023-04-15T03:19:08.859Z,6.37
2023-04-15T03:21:36.374Z,7.37
2023-04-15T03:24:04.042Z,6.87
2023-04-15T03:26:32.080Z,7.60
2023-04-15T03:28:59.911Z,6.90
2023-04-15T03:31:27.767Z,7.10
2023-04-15T03:33:55.318Z,6.87
2023-04-15T03:36:22.792Z,7.20
2023-04-15T03:38:50.332Z,7.70
2023-04-15T03:41:17.852Z,7.43
2023-04-15T03:43:45.394Z,7.50
2023-04-15T03:46:12.932Z,7.30
2023-04-15T03:48:40.486Z,7.53
2023-04-15T03:51:07.975Z,8.40
2023-04-15T03:53:35.552Z,8.33
2023-04-15T03:56:03.175Z,7.20
2023-04-15T03:58:30.743Z,8.70
2023-04-15T04:00:58.335Z,8.37
2023-04-15T04:03:26.106Z,8.80
2023-04-15T04:05:53.795Z,8.70
2023-04-15T04:08:21.397Z,8.73
2023-04-15T04:10:48.889Z,9.13
2023-04-15T04:13:16.476Z,8.23
2023-04-15T04:15:43.989Z,8.73
2023-04-15T04:18:11.627Z,7.47
2023-04-15T04:20:39.173Z,8.70
2023-04-15T04:23:06.704Z,8.37
2023-04-15T04:25:34.171Z,9.23
2023-04-15T04:28:01.762Z,7.87
2023-04-15T04:30:29.323Z,9.27
2023-04-15T04:32:56.945Z,8.80
2023-04-15T04:35:24.504Z,9.50
2023-04-15T04:37:52.030Z,8.90
2023-04-15T04:40:19.590Z,9.80
2023-04-15T04:42:47.114Z,10.00
2023-04-15T04:45:14.659Z,9.60
2023-04-15T04:47:42.260Z,8.97
2023-04-15T04:50:09.910Z,10.10
2023-04-15T04:52:37.904Z,10.23
2023-04-15T04:55:05.615Z,9.83
2023-04-15T04:57:33.185Z,9.83
2023-04-15T05:00:00.695Z,10.20
2023-04-15T05:02:28.368Z,9.63
2023-04-15T05:04:55.908Z,10.30
2023-04-15T05:07:23.431Z,10.80
2023-04-15T05:09:50.953Z,11.23
2023-04-15T05:12:18.516Z,10.83
2023-04-15T05:14:45.991Z,9.83
2023-04-15T05:17:13.560Z,9.97
2023-04-15T05:19:41.080Z,9.63
2023-04-15T05:22:08.761Z,10.70
2023-04-15T05:24:36.238Z,9.03
2023-04-15T05:27:03.850Z,11.70
2023-04-15T05:29:31.337Z,11.50
2023-04-15T05:31:58.909Z,11.30
2023-04-15T05:34:26.486Z,10.03
2023-04-15T05:36:54.130Z,9.97
2023-04-15T05:39:21.777Z,11.27
2023-04-15T05:41:49.292Z,10.23
2023-04-15T05:44:17.951Z,9.90
2023-04-15T05:46:45.553Z,9.53
2023-04-15T05:49:13.065Z,9.50
2023-04-15T05:51:40.630Z,9.57
2023-04-15T05:54:08.137Z,8.40
2023-04-15T05:56:35.665Z,9.67
2023-04-15T05:59:03.229Z,9.43
2023-04-15T06:01:30.776Z,7.70
2023-04-15T06:03:58.337Z,9.47
2023-04-15T06:06:25.912Z,9.17
2023-04-15T06:08:53.593Z,7.60
2023-04-15T06:11:21.395Z,8.90
2023-04-15T06:13:48.949Z,8.97
2023-04-15T06:16:16.539Z,8.00
2023-04-15T06:18:44.114Z,7.30
2023-04-15T06:21:11.725Z,8.93
2023-04-15T06:23:39.269Z,9.67
2023-04-15T06:26:06.807Z,9.83
2023-04-15T06:28:34.300Z,7.80
2023-04-15T06:31:01.911Z,9.33
2023-04-15T06:33:29.622Z,8.20
2023-04-15T06:35:57.183Z,7.90
2023-04-15T06:38:24.696Z,8.80
2023-04-15T06:40:52.284Z,8.43
2023-04-15T06:43:19.775Z,7.07
2023-04-15T06:45:47.408Z,9.50
2023-04-15T06:48:14.935Z,7.70
2023-04-15T06:50:42.870Z,8.53
2023-04-15T06:53:10.374Z,9.30
2023-04-15T06:55:37.886Z,9.50
2023-04-15T06:58:05.395Z,9.80
2023-04-15T07:00:32.912Z,9.63
2023-04-15T07:03:00.735Z,9.80
2023-04-15T07:05:28.341Z,10.23
2023-04-15T07:07:55.856Z,9.27
2023-04-15T07:10:23.952Z,7.90
2023-04-15T07:12:54.711Z,10.40
2023-04-15T07:15:22.207Z,10.13
2023-04-15T07:17:49.956Z,8.53
2023-04-15T07:20:17.575Z,10.67
2023-04-15T07:22:45.216Z,10.53
2023-04-15T07:25:13.035Z,13.00
2023-04-15T07:27:40.580Z,11.50
2023-04-15T07:30:08.361Z,7.50
2023-04-15T07:32:35.953Z,6.60
2023-04-15T07:35:03.528Z,7.90
2023-04-15T07:37:31.098Z,8.10
2023-04-15T07:39:58.614Z,8.90
2023-04-15T07:42:26.206Z,9.17
2023-04-15T07:44:53.717Z,7.80
2023-04-15T07:47:21.519Z,6.57
2023-04-15T07:49:49.111Z,8.27
2023-04-15T07:52:16.660Z,8.53
2023-04-15T07:54:44.166Z,5.23
2023-04-15T07:57:11.754Z,5.73
2023-04-15T07:59:39.265Z,4.37
2023-04-15T08:02:06.940Z,6.10
2023-04-15T08:04:34.677Z,5.27
2023-04-15T08:07:02.366Z,6.07
2023-04-15T08:09:29.862Z,4.50
2023-04-15T08:11:57.435Z,4.70
2023-04-15T08:14:25.390Z,6.13
2023-04-15T08:16:53.008Z,4.73
2023-04-15T08:19:20.531Z,5.20
2023-04-15T08:21:48.143Z,3.80
2023-04-15T08:24:15.760Z,3.90
2023-04-15T08:26:43.352Z,3.73
2023-04-15T08:29:10.876Z,4.30
2023-04-15T08:31:38.539Z,3.57
2023-04-15T08:34:06.072Z,4.93
2023-04-15T08:36:33.724Z,4.03
2023-04-15T08:39:01.599Z,4.33
2023-04-15T08:41:29.924Z,3.00
2023-04-15T08:44:04.936Z,4.10
2023-04-15T08:46:32.639Z,4.00
2023-04-15T08:49:00.490Z,3.27
2023-04-15T08:51:29.489Z,3.50
2023-04-15T08:53:57.083Z,3.70
2023-04-15T08:56:28.724Z,3.93
2023-04-15T08:58:56.435Z,4.13
2023-04-15T09:01:24.180Z,3.80
2023-04-15T09:03:52.002Z,3.07
2023-04-15T09:06:19.730Z,2.93
2023-04-15T09:08:47.411Z,3.23
2023-04-15T09:11:14.948Z,3.57
2023-04-15T09:13:42.470Z,3.37
2023-04-15T09:16:10.058Z,3.00
2023-04-15T09:18:38.048Z,2.33
2023-04-15T09:21:10.030Z,1.97
2023-04-15T09:23:38.277Z,2.17
2023-04-15T09:26:06.098Z,2.43
2023-04-15T09:28:33.888Z,2.50
2023-04-15T09:31:01.996Z,1.70
2023-04-15T09:33:30.681Z,1.63
2023-04-15T09:36:02.004Z,2.27
2023-04-15T09:38:29.673Z,3.43
2023-04-15T09:40:57.608Z,3.40
2023-04-15T09:43:45.413Z,3.20
2023-04-15T09:46:13.058Z,2.60
2023-04-15T09:48:40.687Z,2.37
2023-04-15T09:51:08.287Z,2.90
2023-04-15T09:53:36.739Z,3.13
2023-04-15T09:56:04.649Z,2.27
2023-04-15T09:58:32.825Z,2.50
2023-04-15T10:01:00.866Z,2.00
2023-04-15T10:03:29.978Z,2.20
2023-04-15T10:05:58.248Z,2.40
2023-04-15T10:08:27.582Z,2.60
2023-04-15T10:10:55.463Z,2.70
2023-04-15T10:13:24.520Z,2.53
2023-04-15T10:15:56.189Z,2.37
2023-04-15T10:18:24.960Z,2.27
2023-04-15T10:20:53.158Z,2.70
2023-04-15T10:23:21.240Z,3.10
2023-04-15T10:25:49.805Z,2.60
2023-04-15T10:28:17.793Z,2.33
2023-04-15T10:30:45.356Z,2.73
2023-04-15T10:33:13.536Z,2.40
2023-04-15T10:35:41.522Z,3.40
2023-04-15T10:38:27.929Z,3.27
2023-04-15T10:41:12.459Z,3.50
2023-04-15T10:43:40.055Z,3.67
2023-04-15T10:46:07.651Z,3.40
2023-04-15T10:48:35.391Z,2.37
2023-04-15T10:51:02.905Z,2.63
2023-04-15T10:53:30.685Z,2.40
2023-04-15T10:55:58.984Z,2.90
2023-04-15T10:58:26.703Z,3.00
2023-04-15T11:00:54.568Z,2.50
2023-04-15T11:03:38.407Z,2.30
2023-04-15T11:06:06.567Z,3.23
2023-04-15T11:08:52.595Z,3.37
2023-04-15T11:11:20.316Z,3.60
2023-04-15T11:13:51.883Z,3.27
2023-04-15T11:16:19.468Z,3.53
2023-04-15T11:18:56.385Z,3.57
2023-04-15T11:21:25.707Z,3.80
2023-04-15T11:23:53.239Z,3.37
2023-04-15T11:26:26.610Z,3.17
2023-04-15T11:28:54.220Z,3.47
2023-04-15T11:31:21.774Z,2.90
2023-04-15T11:33:55.452Z,2.57
2023-04-15T11:36:27.222Z,3.23
2023-04-15T11:38:54.807Z,2.53
2023-04-15T11:41:22.785Z,1.97
2023-04-15T11:43:50.895Z,2.00
2023-04-15T11:46:18.509Z,2.73
2023-04-15T11:48:47.006Z,3.00
2023-04-15T11:51:14.749Z,2.43
2023-04-15T11:53:49.441Z,2.80
2023-04-15T11:56:24.385Z,3.03
2023-04-15T11:58:56.156Z,3.67
2023-04-15T12:01:37.000Z,4.17
2023-04-15T12:04:11.971Z,4.30
2023-04-15T12:06:39.861Z,3.63
2023-04-15T12:09:07.379Z,3.57
2023-04-15T12:11:42.514Z,3.60
2023-04-15T12:14:11.204Z,3.50
2023-04-15T12:16:49.022Z,3.50
2023-04-15T12:19:18.965Z,2.77
2023-04-15T12:21:48.069Z,2.87
2023-04-15T12:24:15.590Z,4.20
2023-04-15T12:26:50.453Z,3.30
2023-04-15T12:29:18.369Z,2.60
2023-04-15T12:31:50.208Z,3.00
2023-04-15T12:34:18.450Z,3.23
2023-04-15T12:36:46.160Z,2.73
2023-04-15T12:39:13.806Z,2.60
2023-04-15T12:41:41.302Z,2.30
2023-04-15T12:44:08.875Z,2.43
2023-04-15T12:46:36.431Z,2.67
2023-04-15T12:49:04.091Z,2.60
2023-04-15T12:51:31.697Z,2.47
2023-04-15T12:53:59.370Z,2.80
2023-04-15T12:56:26.841Z,2.87
2023-04-15T12:58:54.363Z,2.43
2023-04-15T13:01:21.979Z,2.77
2023-04-15T13:03:49.638Z,3.50
2023-04-15T13:06:17.439Z,3.43
2023-04-15T13:08:57.437Z,3.00
2023-04-15T13:11:25.896Z,2.70
2023-04-15T13:13:53.389Z,2.53
2023-04-15T13:16:21.174Z,2.70
2023-04-15T13:18:49.280Z,2.80
2023-04-15T13:21:16.834Z,2.57
2023-04-15T13:23:44.407Z,2.90
2023-04-15T13:26:12.204Z,2.93
2023-04-15T13:28:39.965Z,2.10
2023-04-15T13:31:07.537Z,2.60
2023-04-15T13:33:35.142Z,2.50
2023-04-15T13:36:02.775Z,2.43
2023-04-15T13:38:30.468Z,2.40
2023-04-15T13:40:58.047Z,1.93
2023-04-15T13:43:25.528Z,3.20
2023-04-15T13:45:53.220Z,2.30
2023-04-15T13:48:23.722Z,2.67
2023-04-15T13:50:51.312Z,3.30
2023-04-15T13:53:18.845Z,2.90
2023-04-15T13:55:46.472Z,2.40
2023-04-15T13:58:14.041Z,2.63
2023-04-15T14:00:43.902Z,2.73
2023-04-15T14:03:11.654Z,2.70
2023-04-15T14:05:39.230Z,3.10
2023-04-15T14:08:06.848Z,2.67
2023-04-15T14:10:34.367Z,2.90
2023-04-15T14:13:01.900Z,2.80
2023-04-15T14:15:29.462Z,2.50
2023-04-15T14:17:57.124Z,3.50
2023-04-15T14:20:24.651Z,3.00
2023-04-15T14:22:52.243Z,3.40
2023-04-15T14:25:30.498Z,2.97
2023-04-15T14:28:01.160Z,2.70
2023-04-15T14:30:28.736Z,3.60
2023-04-15T14:32:56.470Z,2.63
2023-04-15T14:35:24.054Z,2.90
2023-04-15T14:37:51.665Z,2.27
2023-04-15T14:40:19.581Z,2.60
2023-04-15T14:42:47.291Z,2.43
2023-04-15T14:45:14.835Z,2.30
2023-04-15T14:47:42.486Z,2.40
2023-04-15T14:50:10.434Z,2.60
2023-04-15T14:52:38.164Z,2.33
2023-04-15T14:55:09.958Z,2.63
2023-04-15T14:57:38.085Z,2.67
2023-04-15T15:00:06.073Z,2.20
2023-04-15T15:02:39.143Z,2.30
2023-04-15T15:05:08.022Z,2.50
2023-04-15T15:07:36.099Z,2.70
2023-04-15T15:10:03.778Z,2.13
2023-04-15T15:12:31.313Z,2.20
2023-04-15T15:15:00.419Z,2.20
2023-04-15T15:17:28.171Z,1.90
2023-04-15T15:19:55.860Z,1.87
2023-04-15T15:22:23.459Z,2.17
2023-04-15T15:24:51.139Z,2.47
2023-04-15T15:27:18.671Z,1.77
2023-04-15T15:29:48.578Z,2.20
2023-04-15T15:32:16.189Z,2.00
2023-04-15T15:34:43.696Z,1.67
2023-04-15T15:37:11.219Z,2.20
2023-04-15T15:39:38.743Z,2.00
2023-04-15T15:42:06.430Z,1.70
2023-04-15T15:44:34.617Z,2.33
2023-04-15T15:47:02.557Z,2.00
2023-04-15T15:49:30.088Z,1.97
2023-04-15T15:51:57.960Z,1.93
2023-04-15T15:54:25.628Z,1.43
2023-04-15T15:56:53.159Z,1.53
2023-04-15T15:59:20.665Z,2.30
2023-04-15T16:01:48.357Z,1.30
2023-04-15T16:04:16.266Z,1.63
2023-04-15T16:06:44.002Z,2.30
2023-04-15T16:09:11.525Z,1.27
2023-04-15T16:11:39.276Z,1.53
2023-04-15T16:14:06.911Z,1.70
2023-04-15T16:16:34.664Z,2.37
2023-04-15T16:19:02.313Z,1.83
2023-04-15T16:21:30.036Z,1.70
2023-04-15T16:23:57.562Z,1.67
2023-04-15T16:26:25.153Z,1.70
2023-04-15T16:28:52.635Z,1.50
2023-04-15T16:31:20.213Z,2.50
2023-04-15T16:33:47.775Z,2.40
2023-04-15T16:36:16.557Z,2.00
2023-04-15T16:38:44.048Z,2.10
2023-04-15T16:41:11.593Z,2.10
2023-04-15T16:43:39.141Z,2.33
2023-04-15T16:46:06.722Z,2.10
2023-04-15T16:48:34.375Z,2.13
2023-04-15T16:51:02.121Z,1.73
2023-04-15T16:53:29.651Z,1.90
2023-04-15T16:55:57.250Z,1.80
2023-04-15T16:58:24.793Z,2.13
2023-04-15T17:00:52.432Z,2.30
2023-04-15T17:03:20.117Z,2.00
2023-04-15T17:05:47.864Z,2.30
2023-04-15T17:08:15.472Z,2.70
2023-04-15T17:10:43.077Z,2.57
2023-04-15T17:13:10.571Z,1.87
2023-04-15T17:15:38.192Z,2.73
2023-04-15T17:18:06.017Z,2.97
2023-04-15T17:20:33.644Z,2.73
2023-04-15T17:23:01.178Z,2.17
2023-04-15T17:25:36.841Z,2.13
2023-04-15T17:28:04.920Z,2.77
2023-04-15T17:30:33.429Z,2.80
2023-04-15T17:33:01.389Z,2.57
2023-04-15T17:35:28.921Z,2.50
2023-04-15T17:37:56.529Z,1.87
2023-04-15T17:40:24.136Z,2.40
2023-04-15T17:42:51.829Z,2.50
2023-04-15T17:45:19.388Z,2.90
2023-04-15T17:47:47.041Z,2.53
2023-04-15T17:50:14.605Z,2.63
2023-04-15T17:52:42.233Z,2.60
2023-04-15T17:55:09.927Z,3.30
2023-04-15T17:57:37.563Z,3.10
2023-04-15T18:00:05.856Z,2.67
2023-04-15T18:02:35.444Z,2.80
2023-04-15T18:05:04.833Z,3.17
2023-04-15T18:07:32.429Z,3.00
2023-04-15T18:10:00.095Z,3.03
2023-04-15T18:12:27.611Z,4.23
2023-04-15T18:14:55.275Z,2.43
2023-04-15T18:17:22.914Z,2.83
2023-04-15T18:19:50.607Z,4.13
2023-04-15T18:22:18.320Z,3.37
2023-04-15T18:24:45.885Z,2.23
2023-04-15T18:27:13.488Z,2.50
2023-04-15T18:29:41.118Z,2.37
2023-04-15T18:32:08.638Z,2.73
2023-04-15T18:34:36.275Z,2.63
2023-04-15T18:37:03.839Z,2.70
2023-04-15T18:39:31.679Z,2.77
2023-04-15T18:41:59.273Z,2.87
2023-04-15T18:44:26.845Z,2.90
2023-04-15T18:46:54.565Z,2.80
2023-04-15T18:49:22.161Z,2.40
2023-04-15T18:51:49.721Z,2.60
2023-04-15T18:54:17.331Z,3.50
2023-04-15T18:56:45.044Z,3.90
2023-04-15T18:59:29.548Z,2.90
2023-04-15T19:01:59.040Z,3.00
2023-04-15T19:04:26.783Z,2.50
2023-04-15T19:06:54.340Z,3.13
2023-04-15T19:09:21.992Z,2.60
2023-04-15T19:11:49.534Z,3.13
2023-04-15T19:14:17.925Z,2.80
2023-04-15T19:16:45.685Z,3.57
2023-04-15T19:19:13.294Z,3.67
2023-04-15T19:21:41.176Z,4.27
2023-04-15T19:24:08.891Z,3.77
2023-04-15T19:26:37.056Z,4.17
2023-04-15T19:29:04.716Z,4.33
2023-04-15T19:31:32.397Z,4.93
2023-04-15T19:33:59.921Z,3.50
2023-04-15T19:36:27.501Z,3.47
2023-04-15T19:38:55.027Z,3.77
2023-04-15T19:41:22.560Z,4.17
2023-04-15T19:43:50.104Z,3.37
2023-04-15T19:46:17.810Z,3.70
2023-04-15T19:48:45.443Z,4.23
2023-04-15T19:51:12.967Z,3.17
2023-04-15T19:53:40.580Z,3.30
2023-04-15T19:56:08.136Z,3.70
2023-04-15T19:58:35.722Z,3.63
2023-04-15T20:01:03.488Z,3.43
2023-04-15T20:03:31.703Z,3.10
2023-04-15T20:05:59.470Z,3.40
2023-04-15T20:08:26.982Z,3.23
2023-04-15T20:10:54.552Z,2.87
2023-04-15T20:13:22.296Z,2.83
2023-04-15T20:15:49.959Z,3.40
2023-04-15T20:18:17.654Z,3.20
2023-04-15T20:20:45.238Z,2.37
2023-04-15T20:23:12.778Z,2.80
2023-04-15T20:25:40.442Z,3.73
2023-04-15T20:28:07.951Z,2.93
2023-04-15T20:30:35.551Z,3.20
2023-04-15T20:33:03.160Z,2.90
2023-04-15T20:35:30.719Z,2.87
2023-04-15T20:37:58.237Z,3.20
2023-04-15T20:40:26.009Z,3.37
2023-04-15T20:42:53.572Z,2.83
2023-04-15T20:45:21.151Z,3.27
2023-04-15T20:47:48.710Z,2.83
2023-04-15T20:50:16.328Z,3.20
2023-04-15T20:52:43.844Z,4.83
2023-04-15T20:55:11.442Z,3.90
2023-04-15T20:57:38.962Z,3.83
2023-04-15T21:00:06.862Z,3.33
2023-04-15T21:02:34.559Z,3.23
2023-04-15T21:05:02.223Z,3.80
2023-04-15T21:07:29.751Z,2.80
2023-04-15T21:09:57.292Z,3.30
2023-04-15T21:12:24.802Z,3.23
2023-04-15T21:14:52.355Z,3.53
2023-04-15T21:17:19.878Z,4.90
2023-04-15T21:19:47.505Z,2.80
2023-04-15T21:22:15.044Z,3.30
2023-04-15T21:24:42.602Z,3.27
2023-04-15T21:27:10.332Z,3.57
2023-04-15T21:29:37.848Z,3.63
2023-04-15T21:32:05.415Z,3.23
2023-04-15T21:34:32.992Z,2.97
2023-04-15T21:37:00.542Z,3.60
2023-04-15T21:39:28.139Z,3.53
2023-04-15T21:41:56.800Z,4.03
2023-04-15T21:44:24.692Z,3.10
2023-04-15T21:46:52.594Z,3.83
2023-04-15T21:49:20.388Z,3.90
2023-04-15T21:51:48.044Z,3.17
2023-04-15T21:54:15.598Z,3.77
2023-04-15T21:56:43.097Z,3.73
2023-04-15T21:59:10.732Z,4.63
2023-04-15T22:01:38.343Z,4.23
2023-04-15T22:04:06.204Z,4.40
2023-04-15T22:06:33.783Z,4.07
2023-04-15T22:09:01.403Z,4.37
2023-04-15T22:11:28.949Z,3.93
2023-04-15T22:13:59.789Z,3.73
2023-04-15T22:16:27.436Z,4.10
2023-04-15T22:18:55.557Z,3.90
2023-04-15T22:21:23.451Z,4.30
2023-04-15T22:23:51.827Z,4.40
2023-04-15T22:26:19.465Z,4.57
2023-04-15T22:28:47.038Z,4.53
2023-04-15T22:31:14.643Z,5.00
2023-04-15T22:33:42.165Z,5.87
2023-04-15T22:36:09.763Z,5.13
2023-04-15T22:38:37.335Z,4.90
2023-04-15T22:41:07.752Z,4.50
2023-04-15T22:43:38.302Z,4.60
2023-04-15T22:46:06.144Z,4.67
2023-04-15T22:48:34.519Z,3.87
2023-04-15T22:51:10.238Z,5.07
2023-04-15T22:53:38.065Z,5.40
2023-04-15T22:56:06.201Z,4.20
2023-04-15T22:58:33.980Z,5.50
2023-04-15T23:01:01.493Z,6.00
2023-04-15T23:03:29.188Z,5.73
2023-04-15T23:05:56.836Z,5.97
2023-04-15T23:08:24.392Z,5.37
2023-04-15T23:10:51.960Z,4.97
2023-04-15T23:13:19.545Z,5.90
2023-04-15T23:15:47.110Z,4.13
2023-04-15T23:18:14.681Z,6.37
2023-04-15T23:20:42.174Z,5.50
2023-04-15T23:23:09.749Z,5.13
2023-04-15T23:25:37.272Z,5.17
2023-04-15T23:28:04.873Z,5.80
2023-04-15T23:30:32.392Z,5.13
2023-04-15T23:33:00.070Z,5.57
2023-04-15T23:35:27.652Z,6.07
2023-04-15T23:37:55.183Z,6.00
2023-04-15T23:40:22.844Z,5.57
2023-04-15T23:42:50.462Z,5.87
2023-04-15T23:45:18.656Z,5.80
2023-04-15T23:47:46.352Z,6.33
2023-04-15T23:50:13.933Z,5.13
2023-04-15T23:52:41.476Z,6.23
2023-04-15T23:55:09.302Z,6.47
2023-04-15T23:57:36.910Z,6.07
